Time;durP1;ratioP1;P1;durP2;ratioP2;P2;SDS_P1;SDS_P2;PMS_P1;PMS_P2;Temp;Humidity;BMP_temperature;BMP_pressure;BME280_temperature;BME280_humidity;BME280_pressure;Samples;Min_cycle;Max_cycle;Signal;HPM_P1;HPM_P2
2022/03/11 00:00:59;;;;;;;10.47;7.53;;;5.80;59.60;;;;;;6133191;23;20887;-88
2022/03/11 00:03:27;;;;;;;9.20;7.17;;;5.70;59.80;;;;;;6141997;23;20232;-88
2022/03/11 00:05:53;;;;;;;11.10;7.50;;;5.60;60.00;;;;;;6133322;23;20215;-87
2022/03/11 00:08:18;;;;;;;12.73;7.07;;;5.50;60.60;;;;;;6130978;23;20384;-88
2022/03/11 00:10:44;;;;;;;12.80;8.47;;;5.60;60.40;;;;;;6131220;23;20175;-87
2022/03/11 00:13:13;;;;;;;13.37;7.30;;;5.50;61.00;;;;;;6129468;23;20152;-88
2022/03/11 00:15:39;;;;;;;10.27;7.63;;;5.60;61.50;;;;;;6129251;23;20160;-87
2022/03/11 00:18:05;;;;;;;9.37;8.20;;;5.50;61.90;;;;;;6129753;23;20396;-86
2022/03/11 00:20:31;;;;;;;10.80;7.37;;;5.50;62.30;;;;;;6130666;23;20407;-87
2022/03/11 00:23:01;;;;;;;9.10;7.63;;;5.50;62.50;;;;;;6129949;23;20392;-87
2022/03/11 00:25:26;;;;;;;10.53;7.77;;;5.50;62.80;;;;;;6129583;23;20490;-87
2022/03/11 00:27:52;;;;;;;9.40;8.03;;;5.40;63.60;;;;;;6136386;23;20740;-86
2022/03/11 00:30:18;;;;;;;9.50;7.60;;;5.40;64.40;;;;;;6130237;23;20163;-87
2022/03/11 00:32:45;;;;;;;11.93;8.33;;;5.30;64.80;;;;;;6133309;23;20388;-86
2022/03/11 00:35:17;;;;;;;13.50;9.00;;;5.30;65.10;;;;;;6129113;23;20502;-86
2022/03/11 00:37:44;;;;;;;11.77;8.53;;;5.30;65.20;;;;;;6126275;23;20475;-87
2022/03/11 00:40:12;;;;;;;12.90;9.77;;;5.20;65.80;;;;;;6131383;23;20980;-87
2022/03/11 00:42:38;;;;;;;9.53;7.90;;;5.30;66.40;;;;;;6131772;23;20816;-87
2022/03/11 00:45:04;;;;;;;10.60;8.30;;;5.20;66.90;;;;;;6127799;23;20435;-87
2022/03/11 00:47:29;;;;;;;10.90;8.00;;;5.20;67.00;;;;;;6133841;23;20156;-86
2022/03/11 00:49:55;;;;;;;10.30;8.53;;;5.10;67.30;;;;;;6127317;23;20426;-88
2022/03/11 00:52:20;;;;;;;11.77;9.40;;;5.00;67.60;;;;;;6130959;23;20574;-87
2022/03/11 00:54:46;;;;;;;12.13;9.20;;;4.90;68.20;;;;;;6131831;23;20156;-87
2022/03/11 00:57:11;;;;;;;15.43;9.60;;;4.90;68.90;;;;;;6133511;23;20241;-87
2022/03/11 00:59:38;;;;;;;13.40;9.60;;;4.90;69.50;;;;;;6133323;23;21164;-88
2022/03/11 01:02:04;;;;;;;12.80;9.87;;;4.80;70.30;;;;;;6127060;23;20195;-87
2022/03/11 01:04:30;;;;;;;13.43;10.50;;;4.80;70.20;;;;;;6129995;23;20427;-87
2022/03/11 01:06:55;;;;;;;14.23;10.13;;;4.70;70.90;;;;;;6129792;23;20591;-87
2022/03/11 01:09:21;;;;;;;10.40;9.30;;;4.60;71.90;;;;;;6128651;23;20164;-88
2022/03/11 01:11:46;;;;;;;14.57;10.50;;;4.60;72.30;;;;;;6131858;23;20920;-88
2022/03/11 01:14:12;;;;;;;13.20;10.37;;;4.60;72.60;;;;;;6130288;23;20190;-87
2022/03/11 01:16:38;;;;;;;14.90;10.53;;;4.60;73.30;;;;;;6132037;23;20199;-88
2022/03/11 01:19:03;;;;;;;16.07;11.43;;;4.50;73.70;;;;;;6132923;23;20188;-87
2022/03/11 01:21:29;;;;;;;15.23;11.20;;;4.50;74.80;;;;;;6132752;23;20639;-88
2022/03/11 01:23:55;;;;;;;15.50;11.00;;;4.40;75.00;;;;;;6131861;23;20188;-86
2022/03/11 01:26:20;;;;;;;12.80;10.23;;;4.30;75.60;;;;;;6132281;23;20334;-89
2022/03/11 01:28:46;;;;;;;15.20;11.23;;;4.20;76.80;;;;;;6137226;23;20167;-89
2022/03/11 01:31:13;;;;;;;14.73;11.63;;;4.20;78.00;;;;;;6133864;23;20160;-89
2022/03/11 01:33:42;;;;;;;16.00;10.87;;;4.10;78.40;;;;;;6133068;23;20391;-86
2022/03/11 01:36:13;;;;;;;14.50;11.33;;;4.20;78.60;;;;;;6131244;23;20453;-87
2022/03/11 01:38:39;;;;;;;16.40;12.03;;;4.10;78.70;;;;;;6132697;23;20808;-86
2022/03/11 01:41:05;;;;;;;16.60;11.97;;;4.10;79.40;;;;;;6130464;23;20402;-85
2022/03/11 01:43:48;;;;;;;15.60;12.97;;;4.10;79.90;;;;;;6134936;23;20441;-87
2022/03/11 01:46:14;;;;;;;13.90;11.23;;;4.10;79.90;;;;;;6129896;23;20429;-87
2022/03/11 01:48:39;;;;;;;16.23;11.83;;;4.10;79.70;;;;;;6131250;23;20487;-87
2022/03/11 01:51:05;;;;;;;12.17;10.30;;;4.10;79.50;;;;;;6128303;23;20156;-86
2022/03/11 01:53:31;;;;;;;16.63;11.17;;;3.90;80.30;;;;;;6128716;23;20170;-86
2022/03/11 01:55:59;;;;;;;18.27;11.87;;;3.80;81.20;;;;;;6128441;23;20416;-88
2022/03/11 01:58:26;;;;;;;16.27;11.50;;;3.80;82.00;;;;;;6129253;23;20949;-88
2022/03/11 02:00:52;;;;;;;19.73;13.00;;;3.80;82.30;;;;;;6131020;23;21114;-88
2022/03/11 02:03:18;;;;;;;16.47;12.40;;;3.90;82.30;;;;;;6131615;23;20395;-88
2022/03/11 02:05:45;;;;;;;16.73;12.73;;;3.70;83.20;;;;;;6127839;23;20499;-87
2022/03/11 02:08:14;;;;;;;16.57;12.50;;;3.70;83.80;;;;;;6130168;23;20520;-88
2022/03/11 02:10:40;;;;;;;18.37;13.13;;;3.70;83.70;;;;;;6128181;23;20398;-88
2022/03/11 02:13:09;;;;;;;17.03;12.50;;;3.70;84.10;;;;;;6129843;23;20391;-89
2022/03/11 02:15:37;;;;;;;15.97;13.17;;;3.80;83.80;;;;;;6129843;23;20162;-88
2022/03/11 02:18:03;;;;;;;15.97;12.07;;;3.70;84.40;;;;;;6130216;23;20397;-88
2022/03/11 02:20:30;;;;;;;17.90;13.43;;;3.60;85.40;;;;;;6129983;23;20513;-88
2022/03/11 02:23:00;;;;;;;16.60;12.80;;;3.50;85.80;;;;;;6130196;23;20157;-88
2022/03/11 02:25:25;;;;;;;16.50;11.50;;;3.60;85.70;;;;;;6132677;23;20745;-88
2022/03/11 02:27:54;;;;;;;18.60;12.37;;;3.70;85.50;;;;;;6131774;23;20438;-88
2022/03/11 02:30:20;;;;;;;15.70;11.50;;;3.50;85.70;;;;;;6130674;23;20243;-89
2022/03/11 02:32:47;;;;;;;18.43;12.67;;;3.40;86.40;;;;;;6131623;23;20388;-88
2022/03/11 02:35:18;;;;;;;16.57;12.20;;;3.40;86.80;;;;;;6130571;23;20479;-89
2022/03/11 02:37:45;;;;;;;16.40;11.97;;;3.40;87.10;;;;;;6128360;23;20476;-88
2022/03/11 02:40:29;;;;;;;14.97;12.50;;;3.20;87.70;;;;;;6157218;23;20759;-88
2022/03/11 02:42:54;;;;;;;17.60;12.80;;;3.10;88.90;;;;;;6128606;23;20398;-88
2022/03/11 02:45:20;;;;;;;17.20;11.83;;;3.20;88.80;;;;;;6131729;23;20189;-89
2022/03/11 02:47:45;;;;;;;20.40;12.97;;;3.30;88.20;;;;;;6130896;23;20345;-88
2022/03/11 02:50:11;;;;;;;15.63;12.60;;;3.10;88.40;;;;;;6128102;23;20734;-89
2022/03/11 02:52:37;;;;;;;17.00;12.80;;;2.90;89.60;;;;;;6128029;23;20210;-88
2022/03/11 02:55:02;;;;;;;17.37;12.67;;;3.00;90.10;;;;;;6129521;23;20169;-88
2022/03/11 02:57:28;;;;;;;14.70;12.00;;;2.90;90.40;;;;;;6129167;23;20570;-88
2022/03/11 02:59:54;;;;;;;17.60;12.40;;;2.90;90.50;;;;;;6130290;23;20164;-88
2022/03/11 03:02:19;;;;;;;18.93;11.83;;;2.90;90.60;;;;;;6130485;23;20159;-89
2022/03/11 03:04:45;;;;;;;16.43;11.77;;;2.80;90.90;;;;;;6127519;23;20572;-89
2022/03/11 03:07:11;;;;;;;19.40;13.23;;;2.80;91.00;;;;;;6129662;23;20162;-89
2022/03/11 03:09:41;;;;;;;19.37;14.10;;;2.50;91.50;;;;;;6133681;23;20253;-89
2022/03/11 03:12:10;;;;;;;17.57;12.60;;;2.60;92.10;;;;;;6133273;23;20394;-88
2022/03/11 03:14:37;;;;;;;18.50;13.30;;;2.50;92.10;;;;;;6129843;23;20407;-88
2022/03/11 03:17:04;;;;;;;18.40;13.50;;;2.60;92.30;;;;;;6134557;23;20393;-88
2022/03/11 03:19:29;;;;;;;17.00;12.73;;;2.60;92.40;;;;;;6133046;23;20404;-88
2022/03/11 03:21:55;;;;;;;16.20;11.67;;;2.50;92.40;;;;;;6130968;23;20394;-88
2022/03/11 03:24:20;;;;;;;24.57;13.73;;;2.50;92.40;;;;;;6131763;23;20666;-88
2022/03/11 03:26:46;;;;;;;15.57;12.67;;;2.30;92.90;;;;;;6133540;23;20476;-88
2022/03/11 03:29:14;;;;;;;16.57;12.70;;;2.10;93.40;;;;;;6131457;23;20626;-87
2022/03/11 03:31:42;;;;;;;20.50;14.20;;;2.00;94.00;;;;;;6131847;23;20397;-87
2022/03/11 03:34:08;;;;;;;20.73;13.00;;;2.10;94.20;;;;;;6134132;23;20854;-87
2022/03/11 03:36:45;;;;;;;18.10;13.50;;;2.20;94.10;;;;;;6132149;23;20707;-88
2022/03/11 03:39:10;;;;;;;18.57;12.80;;;2.30;93.70;;;;;;6133631;23;20145;-88
2022/03/11 03:41:36;;;;;;;19.17;12.90;;;2.20;93.90;;;;;;6134657;23;20458;-87
2022/03/11 03:44:02;;;;;;;18.83;12.50;;;2.30;93.90;;;;;;6134924;23;20384;-88
2022/03/11 03:46:30;;;;;;;15.73;12.20;;;2.20;93.80;;;;;;6131667;23;20157;-88
2022/03/11 03:48:56;;;;;;;20.57;12.93;;;2.10;94.50;;;;;;6134816;23;20164;-87
2022/03/11 03:51:21;;;;;;;19.50;13.00;;;2.20;94.40;;;;;;6131521;23;20388;-87
2022/03/11 03:53:47;;;;;;;16.80;12.43;;;2.20;94.10;;;;;;6132456;23;20219;-87
2022/03/11 03:56:16;;;;;;;18.30;12.97;;;2.20;94.00;;;;;;6130965;23;20717;-87
2022/03/11 03:58:41;;;;;;;19.23;12.93;;;2.20;94.00;;;;;;6132149;23;20164;-87
2022/03/11 04:01:07;;;;;;;18.50;12.90;;;1.90;94.20;;;;;;6129498;23;20446;-87
2022/03/11 04:03:32;;;;;;;17.33;12.50;;;1.90;94.60;;;;;;6132506;23;20164;-88
2022/03/11 04:05:58;;;;;;;19.17;13.50;;;1.90;94.70;;;;;;6127300;23;20198;-87
2022/03/11 04:08:27;;;;;;;20.87;13.70;;;1.80;95.00;;;;;;6132885;23;20164;-88
2022/03/11 04:10:53;;;;;;;19.53;14.10;;;1.80;95.10;;;;;;6109048;23;20221;-88
2022/03/11 04:13:18;;;;;;;18.93;13.60;;;1.80;94.80;;;;;;6137024;23;20866;-88
2022/03/11 04:16:10;;;;;;;19.77;12.50;;;1.80;95.10;;;;;;6136466;23;20168;-88
2022/03/11 04:18:35;;;;;;;20.07;13.20;;;1.70;95.20;;;;;;6138190;23;20227;-88
2022/03/11 04:21:01;;;;;;;18.77;13.77;;;1.60;95.50;;;;;;6136622;23;20490;-87
2022/03/11 04:23:26;;;;;;;18.23;12.40;;;1.50;95.30;;;;;;6135829;23;20515;-89
2022/03/11 04:25:55;;;;;;;17.57;12.90;;;1.60;95.40;;;;;;6134770;23;20164;-88
2022/03/11 04:28:21;;;;;;;19.43;12.20;;;1.70;95.10;;;;;;6132943;23;20156;-88
2022/03/11 04:30:49;;;;;;;20.63;13.27;;;1.70;94.60;;;;;;6133353;23;20430;-88
2022/03/11 04:33:15;;;;;;;17.10;12.70;;;1.70;94.40;;;;;;6132670;23;20160;-86
2022/03/11 04:35:46;;;;;;;23.00;13.53;;;1.50;94.70;;;;;;6131859;23;20404;-88
2022/03/11 04:38:14;;;;;;;18.50;12.40;;;1.50;94.80;;;;;;6131821;23;20578;-88
2022/03/11 04:40:40;;;;;;;18.80;12.23;;;1.60;94.50;;;;;;6132753;23;20515;-88
2022/03/11 04:43:05;;;;;;;21.10;13.43;;;1.70;93.80;;;;;;6135489;23;20196;-89
2022/03/11 04:45:31;;;;;;;18.47;12.33;;;1.50;94.10;;;;;;6131089;23;20192;-89
2022/03/11 04:48:15;;;;;;;18.50;13.30;;;1.40;94.50;;;;;;6139701;23;20188;-89
2022/03/11 04:50:44;;;;;;;17.60;12.80;;;1.40;94.70;;;;;;6134460;23;20164;-88
2022/03/11 04:53:10;;;;;;;16.90;12.50;;;1.30;94.40;;;;;;6129450;23;20383;-88
2022/03/11 04:55:44;;;;;;;16.17;11.60;;;1.30;94.40;;;;;;6128039;23;20386;-89
2022/03/11 04:58:13;;;;;;;14.57;10.30;;;1.40;94.30;;;;;;6131803;23;20183;-88
2022/03/11 05:00:41;;;;;;;15.57;10.63;;;1.50;93.30;;;;;;6128419;23;20879;-88
2022/03/11 05:03:16;;;;;;;17.07;11.13;;;1.40;92.60;;;;;;6105598;23;20424;-89
2022/03/11 05:05:50;;;;;;;14.87;10.53;;;1.50;92.30;;;;;;6130983;23;20443;-88
2022/03/11 05:08:32;;;;;;;14.30;10.00;;;1.50;92.10;;;;;;6129741;23;20394;-89
2022/03/11 05:11:27;;;;;;;14.27;10.13;;;1.60;91.50;;;;;;6133021;23;20422;-90
2022/03/11 05:13:53;;;;;;;19.73;10.67;;;1.60;91.10;;;;;;6131992;23;20928;-90
2022/03/11 05:16:19;;;;;;;16.17;10.40;;;1.50;91.10;;;;;;6132309;23;20395;-90
2022/03/11 05:18:44;;;;;;;16.40;10.73;;;1.50;91.00;;;;;;6143845;23;20170;-89
2022/03/11 05:21:10;;;;;;;16.33;11.07;;;1.50;90.80;;;;;;6136111;23;20551;-89
2022/03/11 05:23:35;;;;;;;17.97;10.00;;;1.40;91.00;;;;;;6131580;23;20350;-89
2022/03/11 05:26:02;;;;;;;15.40;9.73;;;1.40;90.80;;;;;;6135372;23;20159;-89
2022/03/11 05:28:28;;;;;;;17.93;10.23;;;1.40;90.80;;;;;;6133565;23;20156;-88
2022/03/11 05:30:54;;;;;;;16.00;10.63;;;1.40;90.90;;;;;;6130977;23;20412;-88
2022/03/11 05:33:27;;;;;;;19.23;11.60;;;1.50;90.50;;;;;;6131449;23;20388;-89
2022/03/11 05:35:53;;;;;;;17.40;10.43;;;1.50;90.30;;;;;;6131677;23;20576;-89
2022/03/11 05:38:20;;;;;;;16.73;10.77;;;1.40;90.50;;;;;;6133004;23;20395;-88
2022/03/11 05:40:50;;;;;;;14.53;10.00;;;1.40;90.40;;;;;;6132357;23;20814;-90
2022/03/11 05:43:15;;;;;;;13.37;9.90;;;1.40;90.50;;;;;;6131764;23;20395;-89
2022/03/11 05:45:41;;;;;;;13.90;10.50;;;1.40;90.40;;;;;;6131293;23;20678;-89
2022/03/11 05:48:07;;;;;;;15.17;9.40;;;1.40;90.40;;;;;;6131295;23;20161;-88
2022/03/11 05:50:32;;;;;;;15.70;11.67;;;1.30;90.80;;;;;;6130051;23;20416;-89
2022/03/11 05:52:58;;;;;;;17.57;11.00;;;1.20;91.50;;;;;;6129731;23;20461;-89
2022/03/11 05:55:25;;;;;;;14.30;11.23;;;1.20;92.00;;;;;;6127027;23;20192;-90
2022/03/11 05:58:14;;;;;;;18.37;11.07;;;1.10;92.30;;;;;;6134877;23;20160;-90
2022/03/11 06:00:40;;;;;;;16.03;12.40;;;1.10;92.40;;;;;;6130033;23;20812;-88
2022/03/11 06:03:06;;;;;;;14.77;10.67;;;1.10;92.10;;;;;;6129338;23;20605;-94
2022/03/11 06:05:54;;;;;;;16.60;9.97;;;1.00;91.80;;;;;;6132159;23;20756;-90
2022/03/11 06:08:20;;;;;;;13.33;9.57;;;0.90;91.70;;;;;;6132262;23;20486;-93
2022/03/11 06:10:46;;;;;;;16.53;10.40;;;1.10;91.80;;;;;;6130021;23;21045;-92
2022/03/11 06:13:11;;;;;;;13.60;9.37;;;1.20;91.50;;;;;;6129840;23;20216;-89
2022/03/11 06:15:37;;;;;;;11.17;9.13;;;1.10;91.70;;;;;;6132006;23;20387;-91
2022/03/11 06:18:23;;;;;;;14.57;9.83;;;1.10;91.70;;;;;;6144660;23;20516;-85
2022/03/11 06:20:51;;;;;;;15.73;10.20;;;1.00;91.90;;;;;;6133963;23;20547;-87
2022/03/11 06:23:25;;;;;;;13.93;9.23;;;1.00;91.50;;;;;;6136395;23;20392;-87
2022/03/11 06:25:51;;;;;;;12.70;8.60;;;1.10;91.10;;;;;;6134471;23;20478;-88
2022/03/11 06:28:17;;;;;;;14.17;8.97;;;1.20;91.20;;;;;;6134305;23;20576;-87
2022/03/11 06:30:45;;;;;;;14.87;9.30;;;1.50;90.60;;;;;;6132478;23;20762;-86
2022/03/11 06:33:23;;;;;;;15.93;9.53;;;1.60;89.80;;;;;;6144201;23;20469;-88
2022/03/11 06:35:54;;;;;;;12.93;8.20;;;1.70;89.50;;;;;;6141738;23;20392;-87
2022/03/11 06:38:23;;;;;;;12.40;8.20;;;1.90;88.10;;;;;;6138434;23;20396;-87
2022/03/11 06:40:49;;;;;;;13.10;8.33;;;2.00;87.00;;;;;;6134604;23;20396;-87
2022/03/11 06:43:17;;;;;;;14.63;8.67;;;2.10;86.20;;;;;;6135615;23;20498;-85
2022/03/11 06:45:43;;;;;;;12.60;9.10;;;2.20;85.20;;;;;;6138142;23;20466;-84
2022/03/11 06:48:08;;;;;;;12.47;8.10;;;2.20;84.60;;;;;;6133440;23;20995;-85
2022/03/11 06:50:34;;;;;;;13.27;8.53;;;2.20;84.90;;;;;;6133994;23;20564;-84
2022/03/11 06:52:59;;;;;;;13.20;8.00;;;2.20;84.50;;;;;;6136173;23;20153;-85
2022/03/11 06:55:43;;;;;;;15.83;8.67;;;2.20;84.30;;;;;;6134019;23;20195;-85
2022/03/11 06:58:09;;;;;;;12.77;7.90;;;2.30;83.10;;;;;;6161642;23;20216;-85
2022/03/11 07:00:48;;;;;;;12.87;9.23;;;2.30;83.00;;;;;;6161858;23;20414;-84
2022/03/11 07:03:14;;;;;;;10.23;8.17;;;2.30;82.20;;;;;;6133791;23;20383;-85
2022/03/11 07:05:39;;;;;;;14.40;8.20;;;2.40;82.20;;;;;;6132948;23;20541;-86
2022/03/11 07:08:10;;;;;;;10.00;7.37;;;2.50;81.80;;;;;;6136195;23;20618;-87
2022/03/11 07:10:36;;;;;;;9.97;7.23;;;2.50;82.20;;;;;;6136118;23;20425;-86
2022/03/11 07:13:01;;;;;;;10.00;7.30;;;2.70;82.30;;;;;;6111033;23;20392;-87
2022/03/11 07:15:47;;;;;;;12.10;8.33;;;2.90;81.50;;;;;;6163625;23;20478;-91
2022/03/11 07:18:53;;;;;;;10.30;7.23;;;3.00;80.70;;;;;;6141257;23;20389;-91
2022/03/11 07:21:18;;;;;;;9.70;6.90;;;3.20;80.10;;;;;;6136538;23;20384;-86
2022/03/11 07:23:44;;;;;;;12.30;8.43;;;3.30;79.00;;;;;;6162048;23;20380;-86
2022/03/11 07:26:09;;;;;;;12.60;7.73;;;3.30;78.10;;;;;;6132806;23;20176;-87
2022/03/11 07:28:35;;;;;;;11.63;7.53;;;3.40;78.00;;;;;;6162726;23;20532;-86
2022/03/11 07:31:10;;;;;;;13.47;8.63;;;3.40;77.30;;;;;;6162336;23;20157;-86
2022/03/11 07:33:37;;;;;;;10.07;8.20;;;3.40;77.00;;;;;;6135365;23;20303;-85
2022/03/11 07:36:03;;;;;;;10.73;7.43;;;3.40;77.20;;;;;;6159148;23;20387;-85
2022/03/11 07:38:31;;;;;;;12.10;8.60;;;3.60;77.40;;;;;;6135131;23;20572;-86
2022/03/11 07:40:58;;;;;;;10.20;7.73;;;3.90;76.20;;;;;;6138432;23;20159;-86
2022/03/11 07:43:25;;;;;;;11.03;7.17;;;4.10;74.50;;;;;;6158923;23;20383;-85
2022/03/11 07:45:51;;;;;;;12.20;7.30;;;4.10;76.10;;;;;;6133678;23;20542;-84
2022/03/11 07:48:18;;;;;;;10.83;7.37;;;4.10;73.00;;;;;;6132895;23;20398;-84
2022/03/11 07:50:44;;;;;;;10.93;7.50;;;4.30;73.40;;;;;;6132024;23;20411;-80
2022/03/11 07:53:13;;;;;;;9.90;8.07;;;4.40;72.90;;;;;;6131884;23;20388;-80
2022/03/11 07:55:39;;;;;;;9.70;7.70;;;4.50;73.00;;;;;;6130611;23;20477;-83
2022/03/11 07:58:26;;;;;;;8.83;7.57;;;4.60;73.10;;;;;;6127531;23;20493;-86
2022/03/11 08:00:55;;;;;;;7.47;6.23;;;4.70;73.10;;;;;;6128055;23;20175;-86
2022/03/11 08:03:21;;;;;;;10.23;7.70;;;5.00;71.50;;;;;;6129270;23;20403;-86
2022/03/11 08:05:48;;;;;;;13.50;8.30;;;5.10;71.20;;;;;;6132061;23;20439;-87
2022/03/11 08:08:14;;;;;;;10.13;7.67;;;5.40;70.70;;;;;;6128987;23;20395;-87
2022/03/11 08:10:40;;;;;;;10.80;7.87;;;5.60;69.70;;;;;;6130426;23;20699;-87
2022/03/11 08:13:06;;;;;;;9.80;7.83;;;5.70;69.30;;;;;;6132195;23;20184;-88
2022/03/11 08:15:33;;;;;;;9.73;6.87;;;5.70;69.30;;;;;;6155683;23;20624;-86
2022/03/11 08:17:58;;;;;;;9.20;7.17;;;5.90;66.90;;;;;;6130426;23;20385;-86
2022/03/11 08:20:24;;;;;;;10.17;7.87;;;6.00;68.00;;;;;;6126079;23;20398;-86
2022/03/11 08:23:03;;;;;;;9.10;7.20;;;6.00;66.50;;;;;;6125998;23;20676;-89
2022/03/11 08:25:29;;;;;;;13.93;8.30;;;6.10;66.80;;;;;;6130429;23;20217;-87
2022/03/11 08:27:56;;;;;;;10.63;7.90;;;6.40;65.50;;;;;;6131403;23;20433;-91
2022/03/11 08:30:22;;;;;;;10.70;8.03;;;6.80;65.50;;;;;;6133211;23;21090;-86
2022/03/11 08:32:51;;;;;;;10.30;8.07;;;6.90;64.80;;;;;;6136080;23;20391;-87
2022/03/11 08:35:19;;;;;;;11.83;8.50;;;7.20;64.90;;;;;;6154262;23;20397;-88
2022/03/11 08:37:45;;;;;;;9.57;8.07;;;7.10;64.50;;;;;;6125903;23;20388;-88
2022/03/11 08:40:13;;;;;;;12.83;8.50;;;7.20;65.40;;;;;;6129942;23;21060;-86
2022/03/11 08:42:40;;;;;;;9.57;7.00;;;7.10;64.70;;;;;;6125551;23;20405;-86
2022/03/11 08:45:08;;;;;;;12.20;7.87;;;7.00;63.60;;;;;;6124060;23;20816;-86
2022/03/11 08:47:34;;;;;;;8.53;7.30;;;7.10;65.00;;;;;;6124831;23;20395;-85
2022/03/11 08:49:59;;;;;;;11.07;8.00;;;7.30;63.30;;;;;;6126548;23;20719;-84
2022/03/11 08:52:25;;;;;;;10.30;7.80;;;7.20;63.30;;;;;;6127431;23;20585;-85
2022/03/11 08:54:52;;;;;;;10.30;7.50;;;7.40;62.10;;;;;;6129141;23;20610;-85
2022/03/11 08:57:18;;;;;;;8.57;7.40;;;7.50;64.50;;;;;;6130104;23;20416;-85
2022/03/11 08:59:44;;;;;;;11.00;7.93;;;7.60;64.30;;;;;;6130360;23;20411;-85
2022/03/11 09:02:10;;;;;;;9.00;7.70;;;7.80;62.40;;;;;;6136650;23;20915;-86
2022/03/11 09:04:36;;;;;;;10.20;8.00;;;7.90;63.30;;;;;;6138670;23;20321;-85
2022/03/11 09:07:03;;;;;;;11.30;7.83;;;7.80;62.60;;;;;;6137468;23;20160;-84
2022/03/11 09:09:29;;;;;;;10.50;8.80;;;7.90;61.20;;;;;;6144228;23;20777;-85
2022/03/11 09:11:55;;;;;;;8.87;6.80;;;7.90;61.50;;;;;;6140481;23;20475;-85
2022/03/11 09:14:21;;;;;;;10.23;7.30;;;7.80;61.80;;;;;;6137433;23;20486;-85
2022/03/11 09:16:46;;;;;;;10.50;7.27;;;7.90;61.60;;;;;;6105605;23;20591;-85
2022/03/11 09:19:13;;;;;;;24.60;8.97;;;8.20;61.40;;;;;;6133227;23;20588;-85
2022/03/11 09:21:39;;;;;;;43.17;11.27;;;8.40;61.80;;;;;;6129662;23;20531;-85
2022/03/11 09:24:05;;;;;;;16.57;8.63;;;8.60;61.10;;;;;;6132520;23;20431;-86
2022/03/11 09:26:30;;;;;;;14.60;8.37;;;8.80;61.30;;;;;;6129263;23;20601;-84
2022/03/11 09:28:56;;;;;;;15.83;8.63;;;8.80;59.30;;;;;;6133517;23;20599;-84
2022/03/11 09:31:21;;;;;;;19.83;9.17;;;8.70;59.30;;;;;;6128794;23;20258;-84
2022/03/11 09:33:47;;;;;;;10.37;8.00;;;8.90;61.00;;;;;;6129130;23;20603;-85
2022/03/11 09:36:12;;;;;;;9.50;7.40;;;8.70;59.00;;;;;;6131644;23;20522;-84
2022/03/11 09:38:38;;;;;;;10.90;7.47;;;8.70;60.40;;;;;;6134157;23;20598;-85
2022/03/11 09:41:05;;;;;;;10.33;8.07;;;9.00;60.70;;;;;;6131303;23;20164;-85
2022/03/11 09:43:31;;;;;;;9.33;8.07;;;9.00;58.60;;;;;;6131262;23;20436;-85
2022/03/11 09:45:58;;;;;;;19.90;9.27;;;9.20;60.40;;;;;;6127954;23;20409;-84
2022/03/11 09:48:24;;;;;;;11.80;7.87;;;9.10;58.70;;;;;;6130110;23;20494;-85
2022/03/11 09:50:49;;;;;;;8.80;7.70;;;9.40;59.80;;;;;;6131221;23;20489;-85
2022/03/11 09:53:15;;;;;;;13.40;8.47;;;9.50;59.30;;;;;;6132577;23;20442;-84
2022/03/11 09:55:41;;;;;;;10.13;7.80;;;9.50;57.50;;;;;;6128688;23;20160;-85
2022/03/11 09:58:07;;;;;;;10.00;8.33;;;9.80;59.40;;;;;;6132587;23;20398;-84
2022/03/11 10:00:33;;;;;;;9.57;7.83;;;9.90;59.20;;;;;;6132980;23;20627;-85
2022/03/11 10:02:58;;;;;;;10.40;8.30;;;10.20;57.90;;;;;;6132376;23;20166;-85
2022/03/11 10:05:24;;;;;;;10.73;9.03;;;10.30;56.60;;;;;;6133871;23;20417;-84
2022/03/11 10:08:03;;;;;;;11.40;7.60;;;10.50;58.20;;;;;;6133234;23;20527;-84
2022/03/11 10:10:29;;;;;;;10.30;8.63;;;10.50;56.30;;;;;;6134888;23;20540;-84
2022/03/11 10:12:55;;;;;;;11.47;8.57;;;10.20;56.30;;;;;;6130363;23;20805;-85
2022/03/11 10:15:28;;;;;;;11.07;8.17;;;10.30;55.50;;;;;;6129964;23;20490;-85
2022/03/11 10:17:54;;;;;;;12.20;8.60;;;10.80;55.60;;;;;;6128676;23;20384;-85
2022/03/11 10:20:21;;;;;;;9.93;8.47;;;10.70;56.40;;;;;;6130578;23;20395;-85
2022/03/11 10:22:47;;;;;;;10.90;8.90;;;10.70;55.20;;;;;;6133237;23;20392;-84
2022/03/11 10:25:32;;;;;;;9.77;8.33;;;10.90;55.40;;;;;;6134426;23;20439;-85
2022/03/11 10:28:03;;;;;;;13.80;8.70;;;10.90;55.60;;;;;;6135420;23;20474;-85
2022/03/11 10:30:37;;;;;;;11.10;8.93;;;11.00;53.90;;;;;;6140587;23;20431;-85
2022/03/11 10:33:14;;;;;;;8.70;7.80;;;11.10;55.60;;;;;;6139858;23;20801;-86
2022/03/11 10:35:47;;;;;;;10.50;9.30;;;11.50;53.90;;;;;;6138341;23;20702;-85
2022/03/11 10:38:36;;;;;;;14.93;9.20;;;11.70;52.70;;;;;;6140216;23;20387;-86
2022/03/11 10:41:02;;;;;;;10.80;8.73;;;11.90;53.90;;;;;;6140588;23;20395;-85
2022/03/11 10:43:32;;;;;;;14.23;9.43;;;12.20;52.10;;;;;;6140244;23;20470;-85
2022/03/11 10:46:09;;;;;;;11.50;9.33;;;12.20;52.40;;;;;;6140315;23;20828;-85
2022/03/11 10:48:51;;;;;;;10.70;8.20;;;12.00;53.20;;;;;;6139036;23;20383;-85
2022/03/11 10:51:34;;;;;;;11.80;8.67;;;11.90;52.50;;;;;;6139753;23;20399;-86
2022/03/11 10:54:05;;;;;;;10.13;9.13;;;12.50;54.00;;;;;;6138535;23;20402;-85
2022/03/11 10:56:36;;;;;;;12.93;10.27;;;12.90;53.60;;;;;;6140180;23;20418;-85
2022/03/11 10:59:28;;;;;;;9.70;8.50;;;12.80;51.40;;;;;;6139356;23;21192;-86
2022/03/11 11:01:56;;;;;;;11.80;9.80;;;13.20;51.30;;;;;;6140680;23;20422;-85
2022/03/11 11:04:22;;;;;;;13.60;9.60;;;13.70;50.50;;;;;;6140951;23;20427;-86
2022/03/11 11:06:57;;;;;;;11.03;9.90;;;13.70;51.00;;;;;;6140597;23;20392;-86
2022/03/11 11:09:30;;;;;;;11.80;8.70;;;13.60;49.50;;;;;;6161862;23;20404;-86
2022/03/11 11:12:07;;;;;;;14.37;11.37;;;13.80;51.00;;;;;;6132387;23;20458;-86
2022/03/11 11:14:33;;;;;;;11.43;9.77;;;13.50;51.70;;;;;;6133481;23;20420;-86
2022/03/11 11:17:02;;;;;;;13.70;10.43;;;13.30;50.10;;;;;;6132933;23;20902;-86
2022/03/11 11:20:14;;;;;;;12.13;9.93;;;13.90;50.80;;;;;;6131561;23;20156;-87
2022/03/11 11:22:41;;;;;;;13.93;10.27;;;14.30;48.70;;;;;;6138875;23;21006;-85
2022/03/11 11:25:08;;;;;;;12.70;10.30;;;14.40;48.90;;;;;;6139004;23;20495;-86
2022/03/11 11:27:34;;;;;;;13.97;10.93;;;14.30;50.30;;;;;;6139453;23;20423;-85
2022/03/11 11:30:01;;;;;;;12.93;10.30;;;14.30;50.90;;;;;;6135914;23;20403;-85
2022/03/11 11:32:27;;;;;;;12.23;9.90;;;14.10;49.70;;;;;;6146053;23;20380;-85
2022/03/11 11:34:52;;;;;;;12.93;9.93;;;14.00;51.80;;;;;;6145567;23;20399;-86
2022/03/11 11:37:38;;;;;;;12.70;11.40;;;14.20;50.60;;;;;;6135932;23;20450;-86
2022/03/11 11:40:26;;;;;;;13.70;11.23;;;14.60;50.00;;;;;;6136725;23;20161;-86
2022/03/11 11:43:10;;;;;;;12.33;10.10;;;14.70;48.30;;;;;;6133369;23;20937;-86
2022/03/11 11:45:44;;;;;;;12.47;11.07;;;14.80;49.20;;;;;;6136322;23;20795;-86
2022/03/11 11:48:31;;;;;;;10.97;9.83;;;15.00;48.10;;;;;;6135050;23;20391;-86
2022/03/11 11:51:18;;;;;;;12.77;10.90;;;15.40;48.70;;;;;;6133089;23;20450;-85
2022/03/11 11:53:55;;;;;;;12.60;10.30;;;15.10;48.20;;;;;;6135772;23;20396;-86
2022/03/11 11:56:31;;;;;;;16.30;10.10;;;15.10;49.20;;;;;;6134607;23;20402;-86
2022/03/11 11:59:03;;;;;;;14.93;10.70;;;15.20;50.20;;;;;;6132474;23;20407;-86
2022/03/11 12:01:45;;;;;;;11.10;10.00;;;15.50;48.00;;;;;;6131265;23;20418;-86
2022/03/11 12:04:32;;;;;;;11.97;10.10;;;15.70;47.60;;;;;;6159218;23;20435;-86
2022/03/11 12:07:04;;;;;;;11.47;10.37;;;15.30;49.70;;;;;;6160840;23;20610;-85
2022/03/11 12:09:50;;;;;;;15.90;11.20;;;15.20;49.70;;;;;;6137194;23;20415;-86
2022/03/11 12:12:19;;;;;;;35.80;12.53;;;15.20;49.90;;;;;;6132653;23;20395;-85
2022/03/11 12:15:00;;;;;;;16.47;11.60;;;15.60;49.30;;;;;;6134655;23;20465;-85
2022/03/11 12:17:51;;;;;;;12.40;11.10;;;15.70;50.10;;;;;;6133963;23;20403;-86
2022/03/11 12:20:26;;;;;;;11.70;10.50;;;15.60;50.10;;;;;;6132772;23;20412;-86
2022/03/11 12:23:03;;;;;;;12.43;10.70;;;15.30;46.20;;;;;;6134983;23;20391;-85
2022/03/11 12:26:06;;;;;;;11.63;10.43;;;15.40;47.10;;;;;;6133181;23;20439;-85
2022/03/11 12:28:41;;;;;;;14.30;12.07;;;15.70;48.00;;;;;;6120828;23;20472;-86
2022/03/11 12:31:23;;;;;;;12.10;10.70;;;16.00;49.10;;;;;;6138734;23;20851;-86
2022/03/11 12:33:50;;;;;;;12.47;11.17;;;16.40;45.40;;;;;;6135100;23;20401;-85
2022/03/11 12:36:21;;;;;;;13.03;10.50;;;16.40;46.10;;;;;;6133049;23;20872;-86
2022/03/11 12:38:47;;;;;;;11.80;10.60;;;16.70;47.70;;;;;;6132695;23;20391;-86
2022/03/11 12:41:16;;;;;;;12.30;11.00;;;16.60;45.60;;;;;;6134333;23;20384;-86
2022/03/11 12:43:47;;;;;;;15.57;11.50;;;16.50;45.50;;;;;;6135207;23;20391;-86
2022/03/11 12:46:18;;;;;;;13.37;11.60;;;16.40;46.80;;;;;;6159671;23;20487;-86
2022/03/11 12:48:45;;;;;;;14.50;11.70;;;16.80;44.70;;;;;;6135458;23;20499;-86
2022/03/11 12:51:21;;;;;;;12.00;10.70;;;17.20;45.70;;;;;;6130099;23;20172;-85